sensor_id;sensor_type;location;lat;lon;timestamp;P1;durP1;ratioP1;P2;durP2;ratioP2
3995;SDS011;2012;49.794;9.722;2023-06-10T00:02:07;8.10;;;6.87;;
3995;SDS011;2012;49.794;9.722;2023-06-10T00:04:34;12.63;;;7.33;;
3995;SDS011;2012;49.794;9.722;2023-06-10T00:07:03;14.30;;;7.50;;
3995;SDS011;2012;49.794;9.722;2023-06-10T00:09:35;9.83;;;7.50;;
3995;SDS011;2012;49.794;9.722;2023-06-10T00:12:04;16.17;;;7.23;;
3995;SDS011;2012;49.794;9.722;2023-06-10T00:14:31;10.03;;;7.50;;
3995;SDS011;2012;49.794;9.722;2023-06-10T00:16:57;12.37;;;8.40;;
3995;SDS011;2012;49.794;9.722;2023-06-10T00:19:25;8.27;;;6.90;;
3995;SDS011;2012;49.794;9.722;2023-06-10T00:21:57;9.87;;;6.83;;
3995;SDS011;2012;49.794;9.722;2023-06-10T00:24:24;9.60;;;7.23;;
3995;SDS011;2012;49.794;9.722;2023-06-10T00:26:51;24.17;;;6.87;;
3995;SDS011;2012;49.794;9.722;2023-06-10T00:29:18;10.00;;;7.23;;
3995;SDS011;2012;49.794;9.722;2023-06-10T00:31:45;8.90;;;7.10;;
3995;SDS011;2012;49.794;9.722;2023-06-10T00:34:13;8.77;;;6.63;;
3995;SDS011;2012;49.794;9.722;2023-06-10T00:36:40;7.40;;;6.70;;
3995;SDS011;2012;49.794;9.722;2023-06-10T00:39:06;12.73;;;7.43;;
3995;SDS011;2012;49.794;9.722;2023-06-10T00:41:35;17.73;;;6.80;;
3995;SDS011;2012;49.794;9.722;2023-06-10T00:44:02;14.00;;;7.33;;
3995;SDS011;2012;49.794;9.722;2023-06-10T00:46:29;11.20;;;7.20;;
3995;SDS011;2012;49.794;9.722;2023-06-10T00:48:58;17.10;;;7.60;;
3995;SDS011;2012;49.794;9.722;2023-06-10T00:51:26;8.40;;;7.10;;
3995;SDS011;2012;49.794;9.722;2023-06-10T00:53:53;15.50;;;7.63;;
3995;SDS011;2012;49.794;9.722;2023-06-10T00:56:21;14.67;;;7.63;;
3995;SDS011;2012;49.794;9.722;2023-06-10T00:58:48;12.20;;;7.50;;
3995;SDS011;2012;49.794;9.722;2023-06-10T01:01:15;17.03;;;6.90;;
3995;SDS011;2012;49.794;9.722;2023-06-10T01:03:42;11.53;;;7.30;;
3995;SDS011;2012;49.794;9.722;2023-06-10T01:06:14;12.90;;;6.50;;
3995;SDS011;2012;49.794;9.722;2023-06-10T01:08:49;13.43;;;7.30;;
3995;SDS011;2012;49.794;9.722;2023-06-10T01:11:23;12.37;;;6.93;;
3995;SDS011;2012;49.794;9.722;2023-06-10T01:13:54;20.40;;;7.90;;
3995;SDS011;2012;49.794;9.722;2023-06-10T01:16:22;9.00;;;6.80;;
3995;SDS011;2012;49.794;9.722;2023-06-10T01:18:50;17.03;;;7.90;;
3995;SDS011;2012;49.794;9.722;2023-06-10T01:21:19;9.10;;;7.17;;
3995;SDS011;2012;49.794;9.722;2023-06-10T01:23:47;11.53;;;7.87;;
3995;SDS011;2012;49.794;9.722;2023-06-10T01:26:14;8.63;;;7.10;;
3995;SDS011;2012;49.794;9.722;2023-06-10T01:28:54;19.20;;;8.10;;
3995;SDS011;2012;49.794;9.722;2023-06-10T01:31:31;20.57;;;8.33;;
3995;SDS011;2012;49.794;9.722;2023-06-10T01:34:08;11.40;;;6.77;;
3995;SDS011;2012;49.794;9.722;2023-06-10T01:36:38;9.33;;;7.50;;
3995;SDS011;2012;49.794;9.722;2023-06-10T01:39:07;9.70;;;6.97;;
3995;SDS011;2012;49.794;9.722;2023-06-10T01:41:36;11.63;;;8.10;;
3995;SDS011;2012;49.794;9.722;2023-06-10T01:44:04;12.50;;;8.07;;
3995;SDS011;2012;49.794;9.722;2023-06-10T01:46:31;14.00;;;7.53;;
3995;SDS011;2012;49.794;9.722;2023-06-10T01:48:58;14.70;;;8.07;;
3995;SDS011;2012;49.794;9.722;2023-06-10T01:51:24;10.30;;;7.20;;
3995;SDS011;2012;49.794;9.722;2023-06-10T01:53:51;11.33;;;7.33;;
3995;SDS011;2012;49.794;9.722;2023-06-10T01:56:19;16.40;;;7.53;;
3995;SDS011;2012;49.794;9.722;2023-06-10T01:58:46;9.50;;;7.37;;
3995;SDS011;2012;49.794;9.722;2023-06-10T02:01:13;8.80;;;6.77;;
3995;SDS011;2012;49.794;9.722;2023-06-10T02:03:41;16.00;;;8.27;;
3995;SDS011;2012;49.794;9.722;2023-06-10T02:06:08;11.17;;;6.80;;
3995;SDS011;2012;49.794;9.722;2023-06-10T02:08:35;9.73;;;7.80;;
3995;SDS011;2012;49.794;9.722;2023-06-10T02:11:02;12.10;;;6.43;;
3995;SDS011;2012;49.794;9.722;2023-06-10T02:13:28;11.17;;;7.40;;
3995;SDS011;2012;49.794;9.722;2023-06-10T02:15:55;12.90;;;6.80;;
3995;SDS011;2012;49.794;9.722;2023-06-10T02:18:25;12.87;;;6.83;;
3995;SDS011;2012;49.794;9.722;2023-06-10T02:20:53;9.07;;;7.37;;
3995;SDS011;2012;49.794;9.722;2023-06-10T02:23:21;15.53;;;7.50;;
3995;SDS011;2012;49.794;9.722;2023-06-10T02:25:48;12.63;;;6.67;;
3995;SDS011;2012;49.794;9.722;2023-06-10T02:28:15;17.47;;;7.73;;
3995;SDS011;2012;49.794;9.722;2023-06-10T02:30:42;15.00;;;8.00;;
3995;SDS011;2012;49.794;9.722;2023-06-10T02:33:09;24.17;;;7.50;;
3995;SDS011;2012;49.794;9.722;2023-06-10T02:35:37;18.20;;;7.20;;
3995;SDS011;2012;49.794;9.722;2023-06-10T02:38:05;15.60;;;7.67;;
3995;SDS011;2012;49.794;9.722;2023-06-10T02:40:33;21.30;;;7.43;;
3995;SDS011;2012;49.794;9.722;2023-06-10T02:43:00;12.57;;;7.17;;
3995;SDS011;2012;49.794;9.722;2023-06-10T02:45:27;28.47;;;8.57;;
3995;SDS011;2012;49.794;9.722;2023-06-10T02:47:56;22.43;;;8.53;;
3995;SDS011;2012;49.794;9.722;2023-06-10T02:50:23;13.00;;;7.00;;
3995;SDS011;2012;49.794;9.722;2023-06-10T02:53:08;14.37;;;7.63;;
3995;SDS011;2012;49.794;9.722;2023-06-10T02:55:39;16.17;;;7.23;;
3995;SDS011;2012;49.794;9.722;2023-06-10T02:58:10;17.80;;;7.17;;
3995;SDS011;2012;49.794;9.722;2023-06-10T03:00:38;10.90;;;6.30;;
3995;SDS011;2012;49.794;9.722;2023-06-10T03:03:07;17.27;;;8.20;;
3995;SDS011;2012;49.794;9.722;2023-06-10T03:05:45;11.97;;;7.00;;
3995;SDS011;2012;49.794;9.722;2023-06-10T03:08:13;22.80;;;7.47;;
3995;SDS011;2012;49.794;9.722;2023-06-10T03:10:42;11.83;;;6.47;;
3995;SDS011;2012;49.794;9.722;2023-06-10T03:13:12;10.00;;;6.63;;
3995;SDS011;2012;49.794;9.722;2023-06-10T03:15:40;11.13;;;6.70;;
3995;SDS011;2012;49.794;9.722;2023-06-10T03:18:11;17.63;;;8.07;;
3995;SDS011;2012;49.794;9.722;2023-06-10T03:20:39;16.90;;;7.47;;
3995;SDS011;2012;49.794;9.722;2023-06-10T03:23:08;12.93;;;7.50;;
3995;SDS011;2012;49.794;9.722;2023-06-10T03:25:35;11.00;;;7.33;;
3995;SDS011;2012;49.794;9.722;2023-06-10T03:28:03;12.63;;;6.73;;
3995;SDS011;2012;49.794;9.722;2023-06-10T03:30:30;8.63;;;6.33;;
3995;SDS011;2012;49.794;9.722;2023-06-10T03:32:57;8.40;;;7.07;;
3995;SDS011;2012;49.794;9.722;2023-06-10T03:35:26;14.67;;;7.87;;
3995;SDS011;2012;49.794;9.722;2023-06-10T03:37:53;9.17;;;7.33;;
3995;SDS011;2012;49.794;9.722;2023-06-10T03:40:20;17.33;;;7.30;;
3995;SDS011;2012;49.794;9.722;2023-06-10T03:42:47;14.60;;;7.60;;
3995;SDS011;2012;49.794;9.722;2023-06-10T03:45:16;22.17;;;6.97;;
3995;SDS011;2012;49.794;9.722;2023-06-10T03:47:45;17.80;;;8.00;;
3995;SDS011;2012;49.794;9.722;2023-06-10T03:50:17;17.43;;;7.07;;
3995;SDS011;2012;49.794;9.722;2023-06-10T03:52:44;18.60;;;8.53;;
3995;SDS011;2012;49.794;9.722;2023-06-10T03:55:14;16.67;;;7.30;;
3995;SDS011;2012;49.794;9.722;2023-06-10T03:57:44;19.20;;;7.40;;
3995;SDS011;2012;49.794;9.722;2023-06-10T04:00:11;19.03;;;7.27;;
3995;SDS011;2012;49.794;9.722;2023-06-10T04:02:41;16.93;;;7.40;;
3995;SDS011;2012;49.794;9.722;2023-06-10T04:05:20;11.63;;;7.33;;
3995;SDS011;2012;49.794;9.722;2023-06-10T04:07:48;13.87;;;6.97;;
3995;SDS011;2012;49.794;9.722;2023-06-10T04:10:15;15.00;;;6.97;;
3995;SDS011;2012;49.794;9.722;2023-06-10T04:12:42;19.47;;;7.50;;
3995;SDS011;2012;49.794;9.722;2023-06-10T04:15:09;18.53;;;6.90;;
3995;SDS011;2012;49.794;9.722;2023-06-10T04:17:37;17.60;;;8.43;;
3995;SDS011;2012;49.794;9.722;2023-06-10T04:20:04;17.10;;;7.97;;
3995;SDS011;2012;49.794;9.722;2023-06-10T04:22:35;16.43;;;7.90;;
3995;SDS011;2012;49.794;9.722;2023-06-10T04:25:03;14.37;;;7.90;;
3995;SDS011;2012;49.794;9.722;2023-06-10T04:27:30;13.37;;;7.70;;
3995;SDS011;2012;49.794;9.722;2023-06-10T04:29:57;10.77;;;7.60;;
3995;SDS011;2012;49.794;9.722;2023-06-10T04:32:24;18.47;;;8.33;;
3995;SDS011;2012;49.794;9.722;2023-06-10T04:34:52;15.43;;;8.37;;
3995;SDS011;2012;49.794;9.722;2023-06-10T04:37:19;9.47;;;7.67;;
3995;SDS011;2012;49.794;9.722;2023-06-10T04:39:46;16.93;;;8.50;;
3995;SDS011;2012;49.794;9.722;2023-06-10T04:42:13;14.87;;;8.27;;
3995;SDS011;2012;49.794;9.722;2023-06-10T04:44:40;12.63;;;8.37;;
3995;SDS011;2012;49.794;9.722;2023-06-10T04:47:07;19.40;;;9.20;;
3995;SDS011;2012;49.794;9.722;2023-06-10T04:49:35;12.97;;;7.70;;
3995;SDS011;2012;49.794;9.722;2023-06-10T04:52:02;12.30;;;8.27;;
3995;SDS011;2012;49.794;9.722;2023-06-10T04:54:34;18.90;;;7.57;;
3995;SDS011;2012;49.794;9.722;2023-06-10T04:57:01;17.97;;;8.33;;
3995;SDS011;2012;49.794;9.722;2023-06-10T04:59:28;14.77;;;8.47;;
3995;SDS011;2012;49.794;9.722;2023-06-10T05:01:56;13.60;;;8.63;;
3995;SDS011;2012;49.794;9.722;2023-06-10T05:04:23;11.67;;;8.10;;
3995;SDS011;2012;49.794;9.722;2023-06-10T05:06:50;17.47;;;8.47;;
3995;SDS011;2012;49.794;9.722;2023-06-10T05:09:17;17.60;;;9.00;;
3995;SDS011;2012;49.794;9.722;2023-06-10T05:11:44;15.80;;;8.27;;
3995;SDS011;2012;49.794;9.722;2023-06-10T05:14:11;10.63;;;8.60;;
3995;SDS011;2012;49.794;9.722;2023-06-10T05:16:38;13.03;;;8.50;;
3995;SDS011;2012;49.794;9.722;2023-06-10T05:19:05;21.90;;;9.97;;
3995;SDS011;2012;49.794;9.722;2023-06-10T05:21:34;14.33;;;8.83;;
3995;SDS011;2012;49.794;9.722;2023-06-10T05:24:01;16.70;;;9.47;;
3995;SDS011;2012;49.794;9.722;2023-06-10T05:26:28;14.63;;;9.90;;
3995;SDS011;2012;49.794;9.722;2023-06-10T05:28:58;19.47;;;9.10;;
3995;SDS011;2012;49.794;9.722;2023-06-10T05:31:25;15.27;;;8.83;;
3995;SDS011;2012;49.794;9.722;2023-06-10T05:33:52;14.10;;;9.93;;
3995;SDS011;2012;49.794;9.722;2023-06-10T05:36:19;19.80;;;10.53;;
3995;SDS011;2012;49.794;9.722;2023-06-10T05:38:46;14.43;;;9.53;;
3995;SDS011;2012;49.794;9.722;2023-06-10T05:41:13;14.73;;;9.43;;
3995;SDS011;2012;49.794;9.722;2023-06-10T05:43:40;14.60;;;10.37;;
3995;SDS011;2012;49.794;9.722;2023-06-10T05:46:07;11.90;;;9.83;;
3995;SDS011;2012;49.794;9.722;2023-06-10T05:48:35;12.77;;;9.53;;
3995;SDS011;2012;49.794;9.722;2023-06-10T05:51:01;12.83;;;9.83;;
3995;SDS011;2012;49.794;9.722;2023-06-10T05:53:28;25.33;;;9.97;;
3995;SDS011;2012;49.794;9.722;2023-06-10T05:55:55;13.53;;;9.53;;
3995;SDS011;2012;49.794;9.722;2023-06-10T05:58:23;12.27;;;9.33;;
3995;SDS011;2012;49.794;9.722;2023-06-10T06:00:50;16.40;;;9.43;;
3995;SDS011;2012;49.794;9.722;2023-06-10T06:03:17;18.27;;;9.40;;
3995;SDS011;2012;49.794;9.722;2023-06-10T06:05:45;22.03;;;9.50;;
3995;SDS011;2012;49.794;9.722;2023-06-10T06:08:12;18.83;;;9.27;;
3995;SDS011;2012;49.794;9.722;2023-06-10T06:10:45;13.83;;;8.43;;
3995;SDS011;2012;49.794;9.722;2023-06-10T06:13:13;9.13;;;7.73;;
3995;SDS011;2012;49.794;9.722;2023-06-10T06:15:40;16.37;;;9.33;;
3995;SDS011;2012;49.794;9.722;2023-06-10T06:18:07;11.10;;;8.30;;
3995;SDS011;2012;49.794;9.722;2023-06-10T06:20:33;14.30;;;8.97;;
3995;SDS011;2012;49.794;9.722;2023-06-10T06:23:00;15.53;;;8.00;;
3995;SDS011;2012;49.794;9.722;2023-06-10T06:25:27;15.30;;;9.17;;
3995;SDS011;2012;49.794;9.722;2023-06-10T06:27:54;15.40;;;9.13;;
3995;SDS011;2012;49.794;9.722;2023-06-10T06:30:21;9.60;;;8.10;;
3995;SDS011;2012;49.794;9.722;2023-06-10T06:32:48;9.10;;;8.17;;
3995;SDS011;2012;49.794;9.722;2023-06-10T06:35:15;10.03;;;7.97;;
3995;SDS011;2012;49.794;9.722;2023-06-10T06:37:41;8.17;;;6.77;;
3995;SDS011;2012;49.794;9.722;2023-06-10T06:40:17;17.50;;;7.97;;
3995;SDS011;2012;49.794;9.722;2023-06-10T06:42:44;9.33;;;7.03;;
3995;SDS011;2012;49.794;9.722;2023-06-10T06:45:20;13.63;;;6.90;;
3995;SDS011;2012;49.794;9.722;2023-06-10T06:47:47;13.53;;;9.20;;
3995;SDS011;2012;49.794;9.722;2023-06-10T06:50:14;9.20;;;6.40;;
3995;SDS011;2012;49.794;9.722;2023-06-10T06:52:42;10.93;;;6.60;;
3995;SDS011;2012;49.794;9.722;2023-06-10T06:55:09;10.20;;;7.43;;
3995;SDS011;2012;49.794;9.722;2023-06-10T06:57:37;11.40;;;6.90;;
3995;SDS011;2012;49.794;9.722;2023-06-10T07:00:04;15.10;;;7.70;;
3995;SDS011;2012;49.794;9.722;2023-06-10T07:02:31;13.00;;;6.60;;
3995;SDS011;2012;49.794;9.722;2023-06-10T07:04:59;7.40;;;6.60;;
3995;SDS011;2012;49.794;9.722;2023-06-10T07:07:27;8.70;;;7.80;;
3995;SDS011;2012;49.794;9.722;2023-06-10T07:09:54;12.13;;;7.47;;
3995;SDS011;2012;49.794;9.722;2023-06-10T07:12:21;16.30;;;7.13;;
3995;SDS011;2012;49.794;9.722;2023-06-10T07:14:50;9.40;;;7.00;;
3995;SDS011;2012;49.794;9.722;2023-06-10T07:17:17;7.10;;;6.40;;
3995;SDS011;2012;49.794;9.722;2023-06-10T07:19:45;7.23;;;6.33;;
3995;SDS011;2012;49.794;9.722;2023-06-10T07:22:12;10.90;;;7.33;;
3995;SDS011;2012;49.794;9.722;2023-06-10T07:24:39;11.20;;;7.00;;
3995;SDS011;2012;49.794;9.722;2023-06-10T07:27:06;10.37;;;7.07;;
3995;SDS011;2012;49.794;9.722;2023-06-10T07:29:33;10.00;;;7.13;;
3995;SDS011;2012;49.794;9.722;2023-06-10T07:32:03;17.53;;;7.27;;
3995;SDS011;2012;49.794;9.722;2023-06-10T07:34:30;10.00;;;7.03;;
3995;SDS011;2012;49.794;9.722;2023-06-10T07:36:57;11.60;;;7.23;;
3995;SDS011;2012;49.794;9.722;2023-06-10T07:39:23;11.07;;;6.43;;
3995;SDS011;2012;49.794;9.722;2023-06-10T07:41:50;10.10;;;7.30;;
3995;SDS011;2012;49.794;9.722;2023-06-10T07:44:20;10.03;;;7.10;;
3995;SDS011;2012;49.794;9.722;2023-06-10T07:46:46;8.57;;;7.00;;
3995;SDS011;2012;49.794;9.722;2023-06-10T07:49:13;8.07;;;6.43;;
3995;SDS011;2012;49.794;9.722;2023-06-10T07:51:40;10.60;;;6.90;;
3995;SDS011;2012;49.794;9.722;2023-06-10T07:54:07;10.80;;;7.20;;
3995;SDS011;2012;49.794;9.722;2023-06-10T07:56:34;9.40;;;6.87;;
3995;SDS011;2012;49.794;9.722;2023-06-10T07:59:01;12.00;;;7.00;;
3995;SDS011;2012;49.794;9.722;2023-06-10T08:01:27;7.97;;;6.50;;
3995;SDS011;2012;49.794;9.722;2023-06-10T08:03:56;7.93;;;6.83;;
3995;SDS011;2012;49.794;9.722;2023-06-10T08:06:23;7.20;;;5.57;;
3995;SDS011;2012;49.794;9.722;2023-06-10T08:08:50;7.77;;;5.97;;
3995;SDS011;2012;49.794;9.722;2023-06-10T08:11:17;6.80;;;5.17;;
3995;SDS011;2012;49.794;9.722;2023-06-10T08:13:44;14.87;;;6.30;;
3995;SDS011;2012;49.794;9.722;2023-06-10T08:16:11;6.17;;;5.53;;
3995;SDS011;2012;49.794;9.722;2023-06-10T08:18:38;6.60;;;5.47;;
3995;SDS011;2012;49.794;9.722;2023-06-10T08:21:04;5.77;;;5.00;;
3995;SDS011;2012;49.794;9.722;2023-06-10T08:23:31;5.23;;;4.73;;
3995;SDS011;2012;49.794;9.722;2023-06-10T08:25:58;5.63;;;5.13;;
3995;SDS011;2012;49.794;9.722;2023-06-10T08:28:25;5.23;;;4.53;;
3995;SDS011;2012;49.794;9.722;2023-06-10T08:30:52;8.33;;;6.07;;
3995;SDS011;2012;49.794;9.722;2023-06-10T08:33:21;8.27;;;4.93;;
3995;SDS011;2012;49.794;9.722;2023-06-10T08:35:48;8.07;;;4.80;;
3995;SDS011;2012;49.794;9.722;2023-06-10T08:38:15;5.13;;;4.60;;
3995;SDS011;2012;49.794;9.722;2023-06-10T08:40:42;7.00;;;4.73;;
3995;SDS011;2012;49.794;9.722;2023-06-10T08:46:08;7.07;;;4.70;;
3995;SDS011;2012;49.794;9.722;2023-06-10T08:48:39;20.97;;;5.77;;
3995;SDS011;2012;49.794;9.722;2023-06-10T08:51:10;5.70;;;4.80;;
3995;SDS011;2012;49.794;9.722;2023-06-10T08:53:38;6.53;;;5.20;;
3995;SDS011;2012;49.794;9.722;2023-06-10T08:56:16;9.60;;;4.57;;
3995;SDS011;2012;49.794;9.722;2023-06-10T08:58:44;7.50;;;4.90;;
3995;SDS011;2012;49.794;9.722;2023-06-10T09:01:12;10.43;;;5.17;;
3995;SDS011;2012;49.794;9.722;2023-06-10T09:03:39;7.23;;;5.00;;
3995;SDS011;2012;49.794;9.722;2023-06-10T09:06:08;4.77;;;4.17;;
3995;SDS011;2012;49.794;9.722;2023-06-10T09:08:36;5.27;;;4.60;;
3995;SDS011;2012;49.794;9.722;2023-06-10T09:11:04;6.50;;;4.73;;
3995;SDS011;2012;49.794;9.722;2023-06-10T09:13:31;4.27;;;3.50;;
3995;SDS011;2012;49.794;9.722;2023-06-10T09:15:58;6.23;;;4.47;;
3995;SDS011;2012;49.794;9.722;2023-06-10T09:18:28;5.60;;;4.63;;
3995;SDS011;2012;49.794;9.722;2023-06-10T09:20:56;5.77;;;4.20;;
3995;SDS011;2012;49.794;9.722;2023-06-10T09:23:22;9.43;;;3.87;;
3995;SDS011;2012;49.794;9.722;2023-06-10T09:25:55;5.30;;;4.10;;
3995;SDS011;2012;49.794;9.722;2023-06-10T09:28:25;6.30;;;4.30;;
3995;SDS011;2012;49.794;9.722;2023-06-10T09:31:02;3.67;;;3.37;;
3995;SDS011;2012;49.794;9.722;2023-06-10T09:33:31;4.47;;;4.07;;
3995;SDS011;2012;49.794;9.722;2023-06-10T09:35:59;5.20;;;3.77;;
3995;SDS011;2012;49.794;9.722;2023-06-10T09:38:32;7.40;;;3.70;;
3995;SDS011;2012;49.794;9.722;2023-06-10T09:41:02;4.47;;;3.90;;
3995;SDS011;2012;49.794;9.722;2023-06-10T09:43:42;7.27;;;3.43;;
3995;SDS011;2012;49.794;9.722;2023-06-10T09:46:16;6.57;;;3.93;;
3995;SDS011;2012;49.794;9.722;2023-06-10T09:48:45;9.17;;;4.10;;
3995;SDS011;2012;49.794;9.722;2023-06-10T09:51:14;6.67;;;3.80;;
3995;SDS011;2012;49.794;9.722;2023-06-10T09:53:47;4.90;;;3.57;;
3995;SDS011;2012;49.794;9.722;2023-06-10T09:56:15;5.30;;;3.50;;
3995;SDS011;2012;49.794;9.722;2023-06-10T09:58:42;3.80;;;3.50;;
3995;SDS011;2012;49.794;9.722;2023-06-10T10:01:12;3.63;;;3.30;;
3995;SDS011;2012;49.794;9.722;2023-06-10T10:03:44;3.67;;;3.37;;
3995;SDS011;2012;49.794;9.722;2023-06-10T10:06:17;4.37;;;3.10;;
3995;SDS011;2012;49.794;9.722;2023-06-10T10:08:46;5.23;;;2.77;;
3995;SDS011;2012;49.794;9.722;2023-06-10T10:11:18;6.57;;;3.20;;
3995;SDS011;2012;49.794;9.722;2023-06-10T10:13:49;4.10;;;3.27;;
3995;SDS011;2012;49.794;9.722;2023-06-10T10:16:21;3.37;;;3.07;;
3995;SDS011;2012;49.794;9.722;2023-06-10T10:18:55;3.63;;;3.07;;
3995;SDS011;2012;49.794;9.722;2023-06-10T10:21:26;4.57;;;2.53;;
3995;SDS011;2012;49.794;9.722;2023-06-10T10:26:48;5.50;;;3.50;;
3995;SDS011;2012;49.794;9.722;2023-06-10T10:29:20;6.10;;;3.23;;
3995;SDS011;2012;49.794;9.722;2023-06-10T10:31:55;5.73;;;3.17;;
3995;SDS011;2012;49.794;9.722;2023-06-10T10:34:30;3.63;;;3.30;;
3995;SDS011;2012;49.794;9.722;2023-06-10T10:37:01;4.83;;;3.00;;
3995;SDS011;2012;49.794;9.722;2023-06-10T10:39:29;3.73;;;3.07;;
3995;SDS011;2012;49.794;9.722;2023-06-10T10:41:57;3.00;;;2.80;;
3995;SDS011;2012;49.794;9.722;2023-06-10T10:44:24;3.97;;;3.33;;
3995;SDS011;2012;49.794;9.722;2023-06-10T10:46:52;2.70;;;2.50;;
3995;SDS011;2012;49.794;9.722;2023-06-10T10:49:20;3.07;;;2.80;;
3995;SDS011;2012;49.794;9.722;2023-06-10T10:51:58;3.70;;;3.40;;
3995;SDS011;2012;49.794;9.722;2023-06-10T10:54:29;3.17;;;2.73;;
3995;SDS011;2012;49.794;9.722;2023-06-10T10:59:57;3.33;;;3.00;;
3995;SDS011;2012;49.794;9.722;2023-06-10T11:02:44;4.77;;;2.80;;
3995;SDS011;2012;49.794;9.722;2023-06-10T11:05:15;3.20;;;2.90;;
3995;SDS011;2012;49.794;9.722;2023-06-10T11:07:51;4.60;;;2.57;;
3995;SDS011;2012;49.794;9.722;2023-06-10T11:10:37;3.17;;;2.87;;
3995;SDS011;2012;49.794;9.722;2023-06-10T11:13:06;3.23;;;2.77;;
3995;SDS011;2012;49.794;9.722;2023-06-10T11:15:37;7.33;;;2.97;;
3995;SDS011;2012;49.794;9.722;2023-06-10T11:20:41;4.13;;;2.40;;
3995;SDS011;2012;49.794;9.722;2023-06-10T11:31:21;3.97;;;2.70;;
3995;SDS011;2012;49.794;9.722;2023-06-10T11:33:52;3.53;;;2.90;;
3995;SDS011;2012;49.794;9.722;2023-06-10T11:36:23;4.40;;;2.50;;
3995;SDS011;2012;49.794;9.722;2023-06-10T11:41:26;3.20;;;2.50;;
3995;SDS011;2012;49.794;9.722;2023-06-10T11:43:53;3.37;;;2.80;;
3995;SDS011;2012;49.794;9.722;2023-06-10T11:46:23;6.53;;;3.23;;
3995;SDS011;2012;49.794;9.722;2023-06-10T11:48:53;5.13;;;2.90;;
3995;SDS011;2012;49.794;9.722;2023-06-10T11:51:28;7.73;;;2.90;;
3995;SDS011;2012;49.794;9.722;2023-06-10T11:53:56;2.73;;;2.53;;
3995;SDS011;2012;49.794;9.722;2023-06-10T11:56:23;3.87;;;3.10;;
3995;SDS011;2012;49.794;9.722;2023-06-10T11:58:52;3.20;;;2.30;;
3995;SDS011;2012;49.794;9.722;2023-06-10T12:01:34;3.60;;;2.23;;
3995;SDS011;2012;49.794;9.722;2023-06-10T12:04:11;5.40;;;3.10;;
3995;SDS011;2012;49.794;9.722;2023-06-10T12:09:25;3.33;;;3.03;;
3995;SDS011;2012;49.794;9.722;2023-06-10T12:11:55;2.80;;;2.60;;
3995;SDS011;2012;49.794;9.722;2023-06-10T12:20:01;4.53;;;2.80;;
3995;SDS011;2012;49.794;9.722;2023-06-10T12:22:39;6.33;;;3.47;;
3995;SDS011;2012;49.794;9.722;2023-06-10T12:25:07;2.70;;;2.50;;
3995;SDS011;2012;49.794;9.722;2023-06-10T12:27:38;2.97;;;2.70;;
3995;SDS011;2012;49.794;9.722;2023-06-10T12:30:07;5.00;;;3.13;;
3995;SDS011;2012;49.794;9.722;2023-06-10T12:32:44;3.73;;;3.13;;
3995;SDS011;2012;49.794;9.722;2023-06-10T12:35:12;3.07;;;2.80;;
3995;SDS011;2012;49.794;9.722;2023-06-10T12:37:54;3.77;;;2.80;;
3995;SDS011;2012;49.794;9.722;2023-06-10T12:40:36;3.60;;;3.30;;
3995;SDS011;2012;49.794;9.722;2023-06-10T12:43:06;3.20;;;2.90;;
3995;SDS011;2012;49.794;9.722;2023-06-10T12:45:34;4.60;;;2.63;;
3995;SDS011;2012;49.794;9.722;2023-06-10T12:48:10;3.43;;;3.13;;
3995;SDS011;2012;49.794;9.722;2023-06-10T12:50:38;4.93;;;2.77;;
3995;SDS011;2012;49.794;9.722;2023-06-10T12:53:06;4.67;;;3.20;;
3995;SDS011;2012;49.794;9.722;2023-06-10T12:55:33;9.80;;;2.73;;
3995;SDS011;2012;49.794;9.722;2023-06-10T12:58:01;2.30;;;2.20;;
3995;SDS011;2012;49.794;9.722;2023-06-10T13:00:30;2.57;;;2.40;;
3995;SDS011;2012;49.794;9.722;2023-06-10T13:02:59;2.90;;;2.70;;
3995;SDS011;2012;49.794;9.722;2023-06-10T13:05:27;2.37;;;2.20;;
3995;SDS011;2012;49.794;9.722;2023-06-10T13:07:55;3.13;;;2.63;;
3995;SDS011;2012;49.794;9.722;2023-06-10T13:10:22;2.57;;;2.37;;
3995;SDS011;2012;49.794;9.722;2023-06-10T13:12:51;4.53;;;2.90;;
3995;SDS011;2012;49.794;9.722;2023-06-10T13:15:19;6.33;;;2.90;;
3995;SDS011;2012;49.794;9.722;2023-06-10T13:17:46;3.37;;;2.47;;
3995;SDS011;2012;49.794;9.722;2023-06-10T13:20:16;2.50;;;2.30;;
3995;SDS011;2012;49.794;9.722;2023-06-10T13:22:43;2.63;;;2.40;;
3995;SDS011;2012;49.794;9.722;2023-06-10T13:25:11;9.33;;;2.80;;
3995;SDS011;2012;49.794;9.722;2023-06-10T13:27:38;3.83;;;2.37;;
3995;SDS011;2012;49.794;9.722;2023-06-10T13:30:06;2.67;;;2.43;;
3995;SDS011;2012;49.794;9.722;2023-06-10T13:32:34;2.57;;;2.37;;
3995;SDS011;2012;49.794;9.722;2023-06-10T13:35:02;2.90;;;2.60;;
3995;SDS011;2012;49.794;9.722;2023-06-10T13:37:30;2.10;;;1.90;;
3995;SDS011;2012;49.794;9.722;2023-06-10T13:40:00;7.80;;;2.50;;
3995;SDS011;2012;49.794;9.722;2023-06-10T13:42:27;4.03;;;2.50;;
3995;SDS011;2012;49.794;9.722;2023-06-10T13:44:55;3.03;;;2.50;;
3995;SDS011;2012;49.794;9.722;2023-06-10T13:47:23;3.13;;;2.83;;
3995;SDS011;2012;49.794;9.722;2023-06-10T13:49:50;3.23;;;2.70;;
3995;SDS011;2012;49.794;9.722;2023-06-10T13:52:17;2.57;;;2.40;;
3995;SDS011;2012;49.794;9.722;2023-06-10T13:54:44;4.40;;;2.57;;
3995;SDS011;2012;49.794;9.722;2023-06-10T13:57:11;2.60;;;2.40;;
3995;SDS011;2012;49.794;9.722;2023-06-10T13:59:38;8.70;;;2.33;;
3995;SDS011;2012;49.794;9.722;2023-06-10T14:02:05;2.37;;;2.20;;
3995;SDS011;2012;49.794;9.722;2023-06-10T14:04:32;6.47;;;2.73;;
3995;SDS011;2012;49.794;9.722;2023-06-10T14:06:59;4.37;;;2.77;;
3995;SDS011;2012;49.794;9.722;2023-06-10T14:09:27;6.93;;;2.70;;
3995;SDS011;2012;49.794;9.722;2023-06-10T14:11:53;3.53;;;2.50;;
3995;SDS011;2012;49.794;9.722;2023-06-10T14:14:21;2.67;;;2.40;;
3995;SDS011;2012;49.794;9.722;2023-06-10T14:16:48;4.00;;;2.93;;
3995;SDS011;2012;49.794;9.722;2023-06-10T14:19:15;2.50;;;2.30;;
3995;SDS011;2012;49.794;9.722;2023-06-10T14:21:42;2.40;;;2.30;;
3995;SDS011;2012;49.794;9.722;2023-06-10T14:24:09;4.87;;;2.53;;
3995;SDS011;2012;49.794;9.722;2023-06-10T14:26:36;6.00;;;2.63;;
3995;SDS011;2012;49.794;9.722;2023-06-10T14:29:02;2.53;;;2.33;;
3995;SDS011;2012;49.794;9.722;2023-06-10T14:31:29;2.87;;;2.67;;
3995;SDS011;2012;49.794;9.722;2023-06-10T14:33:56;3.13;;;2.50;;
3995;SDS011;2012;49.794;9.722;2023-06-10T14:36:23;2.77;;;2.57;;
3995;SDS011;2012;49.794;9.722;2023-06-10T14:38:49;3.40;;;2.43;;
3995;SDS011;2012;49.794;9.722;2023-06-10T14:41:17;4.13;;;2.63;;
3995;SDS011;2012;49.794;9.722;2023-06-10T14:43:44;4.03;;;2.60;;
3995;SDS011;2012;49.794;9.722;2023-06-10T14:46:11;3.03;;;2.73;;
3995;SDS011;2012;49.794;9.722;2023-06-10T14:48:37;3.20;;;2.60;;
3995;SDS011;2012;49.794;9.722;2023-06-10T14:51:04;6.60;;;2.37;;
3995;SDS011;2012;49.794;9.722;2023-06-10T14:53:31;3.83;;;2.40;;
3995;SDS011;2012;49.794;9.722;2023-06-10T14:55:58;3.43;;;2.90;;
3995;SDS011;2012;49.794;9.722;2023-06-10T14:58:25;2.70;;;2.50;;
3995;SDS011;2012;49.794;9.722;2023-06-10T15:00:52;4.23;;;2.23;;
3995;SDS011;2012;49.794;9.722;2023-06-10T15:03:19;2.80;;;2.30;;
3995;SDS011;2012;49.794;9.722;2023-06-10T15:05:45;2.80;;;2.30;;
3995;SDS011;2012;49.794;9.722;2023-06-10T15:08:12;2.50;;;2.40;;
3995;SDS011;2012;49.794;9.722;2023-06-10T15:10:39;2.57;;;2.37;;
3995;SDS011;2012;49.794;9.722;2023-06-10T15:13:06;4.97;;;2.20;;
3995;SDS011;2012;49.794;9.722;2023-06-10T15:15:33;2.87;;;2.67;;
3995;SDS011;2012;49.794;9.722;2023-06-10T15:18:00;2.60;;;2.40;;
3995;SDS011;2012;49.794;9.722;2023-06-10T15:20:27;2.87;;;2.37;;
3995;SDS011;2012;49.794;9.722;2023-06-10T15:22:53;4.03;;;1.93;;
3995;SDS011;2012;49.794;9.722;2023-06-10T15:25:20;2.10;;;1.90;;
3995;SDS011;2012;49.794;9.722;2023-06-10T15:27:56;11.87;;;2.50;;
3995;SDS011;2012;49.794;9.722;2023-06-10T15:30:22;2.23;;;2.13;;
3995;SDS011;2012;49.794;9.722;2023-06-10T15:32:49;2.93;;;2.20;;
3995;SDS011;2012;49.794;9.722;2023-06-10T15:35:16;2.60;;;2.13;;
3995;SDS011;2012;49.794;9.722;2023-06-10T15:37:43;16.27;;;3.00;;
3995;SDS011;2012;49.794;9.722;2023-06-10T15:40:10;34.03;;;6.37;;
3995;SDS011;2012;49.794;9.722;2023-06-10T15:42:37;29.77;;;6.93;;
3995;SDS011;2012;49.794;9.722;2023-06-10T15:45:04;29.07;;;7.30;;
3995;SDS011;2012;49.794;9.722;2023-06-10T15:47:31;27.77;;;9.03;;
3995;SDS011;2012;49.794;9.722;2023-06-10T15:49:59;25.43;;;6.70;;